createdAt,value
2018-07-27T00:00:59.811Z,26.21
2018-07-27T00:01:59.830Z,26.21
2018-07-27T00:03:52.788Z,26.20
2018-07-27T00:04:52.785Z,26.12
2018-07-27T00:06:45.739Z,26.11
2018-07-27T00:07:45.734Z,26.12
2018-07-27T00:09:38.676Z,26.15
2018-07-27T00:10:38.696Z,26.09
2018-07-27T00:12:31.649Z,26.05
2018-07-27T00:13:31.645Z,26.01
2018-07-27T00:15:24.585Z,26.05
2018-07-27T00:16:24.602Z,26.02
2018-07-27T00:18:17.559Z,26.06
2018-07-27T00:19:17.565Z,26.09
2018-07-27T00:21:10.494Z,26.06
2018-07-27T00:22:10.511Z,26.02
2018-07-27T00:24:03.472Z,26.05
2018-07-27T00:25:03.475Z,25.99
2018-07-27T00:26:56.423Z,26.02
2018-07-27T00:27:56.422Z,25.97
2018-07-27T00:29:49.357Z,25.98
2018-07-27T00:30:49.376Z,25.94
2018-07-27T00:32:42.334Z,25.98
2018-07-27T00:33:42.333Z,25.91
2018-07-27T00:35:35.266Z,25.94
2018-07-27T00:36:35.294Z,25.93
2018-07-27T00:38:28.244Z,25.89
2018-07-27T00:39:28.245Z,25.98
2018-07-27T00:41:21.177Z,25.79
2018-07-27T00:42:21.200Z,25.72
2018-07-27T00:44:14.150Z,25.79
2018-07-27T00:45:14.150Z,25.79
2018-07-27T00:47:07.105Z,25.75
2018-07-27T00:48:07.106Z,25.80
2018-07-27T00:50:00.041Z,25.84
2018-07-27T00:51:00.056Z,25.83
2018-07-27T00:52:53.012Z,25.80
2018-07-27T00:53:53.009Z,25.83
2018-07-27T00:55:45.945Z,25.82
2018-07-27T00:56:45.965Z,25.82
2018-07-27T00:58:38.921Z,25.83
2018-07-27T00:59:38.921Z,25.75
2018-07-27T01:01:31.858Z,25.74
2018-07-27T01:02:31.877Z,25.71
2018-07-27T01:04:24.831Z,25.75
2018-07-27T01:05:24.831Z,25.83
2018-07-27T01:07:17.790Z,25.79
2018-07-27T01:08:17.786Z,25.75
2018-07-27T01:10:10.725Z,25.84
2018-07-27T01:11:10.741Z,25.71
2018-07-27T01:13:03.696Z,25.68
2018-07-27T01:14:03.695Z,25.65
2018-07-27T01:15:56.633Z,25.69
2018-07-27T01:16:56.654Z,25.64
2018-07-27T01:18:49.607Z,25.61
2018-07-27T01:19:49.603Z,25.53
2018-07-27T01:21:42.535Z,25.47
2018-07-27T01:22:42.557Z,25.54
2018-07-27T01:24:35.508Z,25.39
2018-07-27T01:25:35.510Z,25.38
2018-07-27T01:27:28.458Z,25.43
2018-07-27T01:28:28.458Z,25.43
2018-07-27T01:30:21.400Z,25.31
2018-07-27T01:31:21.417Z,25.28
2018-07-27T01:33:14.373Z,25.30
2018-07-27T01:34:14.369Z,25.31
2018-07-27T01:36:07.311Z,25.31
2018-07-27T01:37:07.357Z,25.24
2018-07-27T01:39:00.280Z,25.15
2018-07-27T01:40:00.280Z,25.09
2018-07-27T01:41:53.211Z,25.09
2018-07-27T01:42:53.230Z,25.10
2018-07-27T01:44:46.184Z,25.02
2018-07-27T01:45:46.183Z,25.00
2018-07-27T01:47:39.144Z,25.10
2018-07-27T01:48:39.142Z,24.98
2018-07-27T01:50:32.093Z,24.95
2018-07-27T01:51:32.102Z,24.98
2018-07-27T01:53:25.054Z,24.94
2018-07-27T01:54:25.064Z,24.87
2018-07-27T02:23:45.053Z,24.45
2018-07-27T02:24:45.043Z,24.49
2018-07-27T02:26:37.975Z,24.45
2018-07-27T02:27:38.042Z,24.39
2018-07-27T02:29:30.936Z,24.34
2018-07-27T02:30:30.934Z,24.24
2018-07-27T02:32:23.868Z,24.22
2018-07-27T02:33:23.883Z,24.23
2018-07-27T02:35:16.833Z,24.19
2018-07-27T02:36:16.845Z,24.19
2018-07-27T02:38:09.785Z,24.08
2018-07-27T02:39:09.786Z,24.12
2018-07-27T02:41:02.712Z,24.12
2018-07-27T02:42:02.733Z,24.14
2018-07-27T02:43:55.679Z,24.10
2018-07-27T02:44:55.670Z,24.12
2018-07-27T02:46:48.607Z,24.10
2018-07-27T02:47:48.621Z,24.08
2018-07-27T02:49:41.573Z,24.12
2018-07-27T02:50:41.573Z,24.08
2018-07-27T02:52:34.503Z,24.08
2018-07-27T02:53:34.519Z,24.12
2018-07-27T02:55:27.474Z,23.90
2018-07-27T02:56:27.476Z,24.07
2018-07-27T02:58:20.421Z,23.92
2018-07-27T02:59:20.419Z,23.92
2018-07-27T03:01:13.368Z,23.89
2018-07-27T03:02:13.382Z,23.94
2018-07-27T03:04:06.332Z,23.92
2018-07-27T03:05:06.329Z,23.90
2018-07-27T03:06:59.265Z,23.90
2018-07-27T03:07:59.281Z,23.97
2018-07-27T03:09:52.295Z,24.02
2018-07-27T03:10:52.236Z,23.89
2018-07-27T03:12:45.171Z,23.94
2018-07-27T03:13:45.187Z,23.94
2018-07-27T03:15:38.139Z,23.92
2018-07-27T03:16:38.132Z,23.95
2018-07-27T03:18:31.090Z,23.92
2018-07-27T03:19:31.087Z,23.89
2018-07-27T03:21:24.022Z,23.90
2018-07-27T03:22:24.035Z,23.85
2018-07-27T03:24:16.988Z,23.89
2018-07-27T03:25:16.992Z,23.87
2018-07-27T03:27:09.923Z,23.92
2018-07-27T03:28:09.940Z,23.83
2018-07-27T03:30:02.895Z,23.83
2018-07-27T03:31:02.890Z,23.90
2018-07-27T03:32:55.824Z,23.92
2018-07-27T03:33:55.842Z,23.94
2018-07-27T03:35:48.797Z,23.94
2018-07-27T03:36:48.796Z,23.98
2018-07-27T03:38:41.755Z,23.89
2018-07-27T03:39:41.755Z,23.83
2018-07-27T03:41:34.684Z,23.76
2018-07-27T03:42:34.701Z,23.85
2018-07-27T03:44:27.651Z,23.82
2018-07-27T03:45:27.652Z,23.83
2018-07-27T03:47:20.584Z,23.83
2018-07-27T03:48:20.603Z,23.80
2018-07-27T03:50:13.551Z,23.86
2018-07-27T03:51:13.551Z,23.85
2018-07-27T03:53:06.484Z,23.72
2018-07-27T03:54:06.497Z,23.79
2018-07-27T03:55:59.452Z,23.70
2018-07-27T03:56:59.457Z,23.75
2018-07-27T03:58:52.420Z,23.61
2018-07-27T03:59:52.404Z,23.60
2018-07-27T04:01:45.336Z,23.55
2018-07-27T04:02:45.355Z,23.53
2018-07-27T04:04:38.310Z,23.60
2018-07-27T04:05:38.308Z,23.50
2018-07-27T04:07:31.237Z,23.53
2018-07-27T04:08:31.259Z,23.53
2018-07-27T04:10:24.206Z,23.57
2018-07-27T04:11:24.209Z,23.60
2018-07-27T04:13:17.146Z,23.61
2018-07-27T04:14:17.162Z,23.62
2018-07-27T04:16:10.115Z,23.62
2018-07-27T04:17:10.108Z,23.75
2018-07-27T04:19:03.062Z,23.65
2018-07-27T04:20:03.063Z,23.68
2018-07-27T04:21:55.995Z,23.65
2018-07-27T04:22:56.013Z,23.67
2018-07-27T04:24:48.974Z,23.65
2018-07-27T04:25:48.973Z,23.62
2018-07-27T04:27:41.902Z,23.68
2018-07-27T04:28:41.923Z,23.75
2018-07-27T04:30:34.871Z,23.79
2018-07-27T04:31:34.876Z,23.72
2018-07-27T04:33:27.803Z,23.76
2018-07-27T04:34:27.819Z,23.79
2018-07-27T04:36:20.789Z,23.89
2018-07-27T04:37:20.787Z,23.85
2018-07-27T04:39:13.744Z,23.94
2018-07-27T04:40:13.742Z,23.94
2018-07-27T04:42:06.677Z,23.97
2018-07-27T04:43:06.695Z,23.94
2018-07-27T04:44:59.645Z,24.05
2018-07-27T04:45:59.644Z,23.95
2018-07-27T04:47:52.574Z,24.04
2018-07-27T04:48:52.600Z,24.01
2018-07-27T04:50:45.552Z,23.95
2018-07-27T04:51:45.547Z,24.10
2018-07-27T04:53:38.480Z,24.17
2018-07-27T04:54:38.498Z,24.23
2018-07-27T04:56:31.463Z,24.42
2018-07-27T04:57:31.445Z,24.42
2018-07-27T04:59:24.404Z,24.34
2018-07-27T05:00:24.408Z,24.20
2018-07-27T05:02:17.337Z,24.35
2018-07-27T05:03:17.349Z,24.39
2018-07-27T05:05:10.305Z,24.53
2018-07-27T05:06:10.310Z,24.52
2018-07-27T05:08:03.236Z,24.57
2018-07-27T05:09:03.253Z,24.50
2018-07-27T05:10:56.203Z,24.75
2018-07-27T05:11:56.218Z,24.63
2018-07-27T05:13:49.144Z,24.77
2018-07-27T05:14:49.158Z,24.64
2018-07-27T05:16:42.111Z,24.79
2018-07-27T05:17:42.107Z,24.88
2018-07-27T05:19:35.069Z,24.90
2018-07-27T05:20:35.064Z,24.87
2018-07-27T05:22:28.003Z,25.00
2018-07-27T05:23:28.019Z,24.97
2018-07-27T05:25:20.982Z,25.06
2018-07-27T05:26:20.970Z,25.09
2018-07-27T05:28:13.910Z,25.09
2018-07-27T05:29:13.931Z,25.09
2018-07-27T05:31:06.894Z,25.19
2018-07-27T05:32:06.897Z,25.27
2018-07-27T05:33:59.830Z,25.30
2018-07-27T05:34:59.843Z,25.38
2018-07-27T05:36:52.800Z,25.50
2018-07-27T05:37:52.795Z,25.54
2018-07-27T05:39:45.754Z,25.49
2018-07-27T05:40:45.750Z,25.68
2018-07-27T05:42:38.689Z,25.72
2018-07-27T05:43:38.704Z,25.86
2018-07-27T05:45:31.654Z,26.02
2018-07-27T05:46:31.657Z,26.02
2018-07-27T05:48:24.590Z,26.12
2018-07-27T05:49:24.608Z,26.24
2018-07-27T05:51:17.573Z,27.23
2018-07-27T05:52:17.566Z,28.19
2018-07-27T05:54:10.516Z,30.05
2018-07-27T05:55:10.532Z,30.87
2018-07-27T05:57:03.483Z,31.96
2018-07-27T05:58:03.484Z,32.30
2018-07-27T05:59:56.450Z,32.89
2018-07-27T06:00:56.451Z,33.46
2018-07-27T06:02:49.417Z,33.61
2018-07-27T06:03:49.417Z,33.57
2018-07-27T06:05:42.383Z,33.57
2018-07-27T06:06:42.387Z,33.80
2018-07-27T06:08:35.328Z,33.51
2018-07-27T06:09:35.348Z,33.52
2018-07-27T06:11:28.313Z,34.02
2018-07-27T06:12:28.318Z,34.41
2018-07-27T06:14:21.266Z,34.99
2018-07-27T06:15:21.286Z,34.58
2018-07-27T06:17:14.253Z,34.80
2018-07-27T06:18:14.367Z,34.74
2018-07-27T06:20:07.222Z,34.99
2018-07-27T06:21:07.276Z,34.96
2018-07-27T06:23:00.176Z,35.48
2018-07-27T06:24:00.296Z,35.37
2018-07-27T06:25:53.169Z,35.20
2018-07-27T06:26:53.180Z,35.06
2018-07-27T06:28:46.129Z,35.35
2018-07-27T06:29:46.156Z,34.95
2018-07-27T06:31:39.124Z,34.48
2018-07-27T06:32:39.130Z,34.92
2018-07-27T06:34:32.086Z,34.53
2018-07-27T06:35:32.113Z,34.73
2018-07-27T06:37:25.084Z,34.50
2018-07-27T06:38:25.094Z,34.56
2018-07-27T06:40:18.063Z,34.95
2018-07-27T06:41:18.073Z,35.33
2018-07-27T06:43:11.023Z,35.42
2018-07-27T06:44:11.052Z,35.69
2018-07-27T06:46:04.025Z,35.39
2018-07-27T06:47:04.030Z,35.81
2018-07-27T06:48:56.980Z,35.70
2018-07-27T06:49:57.015Z,35.69
2018-07-27T06:51:49.984Z,35.42
2018-07-27T06:52:49.985Z,35.42
2018-07-27T06:54:42.941Z,35.44
2018-07-27T06:55:42.971Z,35.58
2018-07-27T06:57:35.940Z,36.14
2018-07-27T06:58:35.945Z,35.93
2018-07-27T07:00:28.926Z,35.44
2018-07-27T07:01:28.929Z,35.39
2018-07-27T07:03:21.907Z,35.66
2018-07-27T07:04:21.909Z,35.28
2018-07-27T07:06:14.882Z,35.33
2018-07-27T07:07:14.882Z,35.36
2018-07-27T07:09:07.873Z,35.42
2018-07-27T07:10:07.864Z,35.48
2018-07-27T07:12:00.838Z,35.50
2018-07-27T07:13:00.845Z,35.62
2018-07-27T07:14:53.797Z,36.14
2018-07-27T07:15:53.822Z,36.27
2018-07-27T07:17:46.799Z,35.85
2018-07-27T07:18:46.800Z,35.60
2018-07-27T07:20:39.773Z,36.19
2018-07-27T07:21:39.782Z,36.12
2018-07-27T07:23:32.737Z,35.63
2018-07-27T07:24:32.764Z,35.79
2018-07-27T07:26:25.735Z,35.70
2018-07-27T07:27:25.744Z,35.76
2018-07-27T07:29:18.694Z,35.82
2018-07-27T07:30:18.717Z,35.93
2018-07-27T07:32:11.692Z,35.82
2018-07-27T07:33:11.760Z,35.63
2018-07-27T07:35:04.656Z,35.69
2018-07-27T07:36:04.680Z,35.48
2018-07-27T07:37:57.650Z,35.25
2018-07-27T07:38:57.656Z,35.29
2018-07-27T07:40:50.632Z,34.99
2018-07-27T07:41:50.647Z,34.92
2018-07-27T07:43:43.615Z,34.89
2018-07-27T07:44:43.621Z,34.70
2018-07-27T07:46:36.585Z,34.72
2018-07-27T07:47:36.599Z,34.76
2018-07-27T07:49:29.650Z,34.88
2018-07-27T07:50:29.588Z,35.13
2018-07-27T07:52:22.554Z,35.44
2018-07-27T07:53:22.555Z,35.51
2018-07-27T07:55:15.514Z,35.51
2018-07-27T07:56:15.534Z,35.58
2018-07-27T07:58:08.504Z,35.50
2018-07-27T07:59:08.511Z,35.69
2018-07-27T08:01:01.468Z,35.39
2018-07-27T08:02:01.492Z,35.50
2018-07-27T08:03:54.469Z,35.69
2018-07-27T08:04:54.471Z,35.79
2018-07-27T08:06:47.440Z,35.15
2018-07-27T08:07:47.446Z,35.08
2018-07-27T08:09:40.400Z,34.92
2018-07-27T08:10:40.421Z,34.83
2018-07-27T08:12:33.391Z,34.64
2018-07-27T08:13:33.403Z,34.56
2018-07-27T08:15:26.348Z,34.38
2018-07-27T08:16:26.381Z,34.46
2018-07-27T08:18:19.349Z,34.58
2018-07-27T08:19:19.356Z,34.64
2018-07-27T08:21:12.305Z,34.56
2018-07-27T08:22:12.325Z,34.72
2018-07-27T08:24:05.296Z,34.76
2018-07-27T08:25:05.298Z,34.44
2018-07-27T08:26:58.269Z,33.95
2018-07-27T08:27:58.272Z,33.92
2018-07-27T08:29:51.223Z,33.94
2018-07-27T08:30:51.244Z,33.87
2018-07-27T08:32:44.217Z,33.85
2018-07-27T08:33:44.223Z,33.86
2018-07-27T08:35:37.168Z,33.98
2018-07-27T08:36:37.194Z,33.92
2018-07-27T08:38:30.158Z,33.65
2018-07-27T08:39:30.164Z,33.49
2018-07-27T08:41:23.112Z,33.55
2018-07-27T08:42:23.132Z,33.46
2018-07-27T08:44:16.100Z,33.52
2018-07-27T08:45:16.100Z,33.41
2018-07-27T08:47:09.120Z,33.39
2018-07-27T08:48:09.073Z,33.43
2018-07-27T08:50:02.024Z,33.45
2018-07-27T08:51:02.045Z,33.55
2018-07-27T08:52:55.007Z,33.48
2018-07-27T08:53:55.013Z,33.63
2018-07-27T08:55:47.957Z,33.61
2018-07-27T08:56:47.982Z,33.60
2018-07-27T08:58:40.948Z,33.64
2018-07-27T08:59:40.949Z,33.73
2018-07-27T09:01:33.894Z,33.64
2018-07-27T09:02:33.920Z,33.61
2018-07-27T09:04:26.884Z,33.73
2018-07-27T09:05:26.884Z,33.74
2018-07-27T09:07:19.848Z,33.92
2018-07-27T09:08:19.853Z,33.97
2018-07-27T09:10:12.824Z,34.04
2018-07-27T09:11:12.825Z,34.14
2018-07-27T09:13:05.796Z,34.13
2018-07-27T09:14:05.796Z,34.19
2018-07-27T09:15:58.740Z,34.39
2018-07-27T09:16:58.765Z,34.44
2018-07-27T09:18:51.730Z,34.79
2018-07-27T09:19:51.730Z,34.91
2018-07-27T09:21:44.682Z,34.83
2018-07-27T09:22:44.701Z,34.56
2018-07-27T09:24:37.817Z,34.46
2018-07-27T09:25:37.672Z,34.44
2018-07-27T09:27:30.645Z,34.57
2018-07-27T09:28:30.639Z,34.53
2018-07-27T09:30:23.584Z,34.72
2018-07-27T09:31:23.601Z,34.72
2018-07-27T09:33:16.569Z,34.48
2018-07-27T09:34:16.648Z,34.73
2018-07-27T09:36:09.517Z,34.74
2018-07-27T09:37:09.541Z,34.74
2018-07-27T09:39:02.509Z,34.77
2018-07-27T09:40:02.508Z,34.88
2018-07-27T09:41:55.456Z,34.81
2018-07-27T09:42:55.475Z,34.95
2018-07-27T09:44:48.450Z,34.98
2018-07-27T09:45:48.441Z,34.91
2018-07-27T09:47:41.383Z,35.13
2018-07-27T09:48:41.408Z,34.98
2018-07-27T09:50:34.368Z,35.07
2018-07-27T09:51:34.393Z,35.18
2018-07-27T09:53:27.347Z,35.33
2018-07-27T09:54:27.344Z,35.42
2018-07-27T09:56:20.288Z,35.45
2018-07-27T09:57:20.322Z,35.48
2018-07-27T09:59:13.276Z,35.60
2018-07-27T10:00:13.279Z,35.52
2018-07-27T10:02:06.229Z,35.30
2018-07-27T10:03:06.248Z,35.21
2018-07-27T10:04:59.215Z,35.25
2018-07-27T10:05:59.225Z,35.28
2018-07-27T10:07:52.167Z,35.18
2018-07-27T10:08:52.189Z,35.18
2018-07-27T10:10:45.146Z,35.26
2018-07-27T10:11:45.150Z,35.35
2018-07-27T10:13:38.123Z,35.17
2018-07-27T10:14:38.129Z,35.20
2018-07-27T10:16:31.072Z,35.32
2018-07-27T10:17:31.095Z,35.26
2018-07-27T10:19:24.056Z,35.40
2018-07-27T10:20:24.061Z,35.40
2018-07-27T10:22:17.004Z,35.30
2018-07-27T10:23:17.028Z,35.26
2018-07-27T10:25:09.996Z,35.32
2018-07-27T10:26:10.001Z,35.45
2018-07-27T10:28:02.945Z,35.77
2018-07-27T10:29:02.967Z,35.89
2018-07-27T10:30:55.934Z,36.15
2018-07-27T10:31:55.932Z,36.12
2018-07-27T10:33:48.874Z,36.23
2018-07-27T10:34:48.903Z,36.23
2018-07-27T10:36:41.867Z,36.27
2018-07-27T10:37:41.869Z,36.43
2018-07-27T10:39:34.833Z,36.42
2018-07-27T10:40:34.838Z,36.17
2018-07-27T10:42:27.791Z,35.97
2018-07-27T10:43:27.807Z,35.93
2018-07-27T10:45:20.774Z,35.89
2018-07-27T10:46:20.778Z,35.82
2018-07-27T10:48:13.722Z,35.91
2018-07-27T10:49:13.746Z,35.73
2018-07-27T10:51:06.719Z,35.73
2018-07-27T10:52:06.723Z,35.89
2018-07-27T10:53:59.667Z,36.14
2018-07-27T10:54:59.690Z,36.21
2018-07-27T10:56:52.658Z,35.76
2018-07-27T10:57:52.664Z,35.63
2018-07-27T10:59:45.625Z,35.74
2018-07-27T11:00:45.630Z,35.92
2018-07-27T11:02:38.587Z,35.89
2018-07-27T11:03:38.604Z,35.84
2018-07-27T11:05:31.568Z,36.14
2018-07-27T11:06:31.576Z,36.20
2018-07-27T11:08:24.517Z,36.38
2018-07-27T11:09:24.546Z,36.42
2018-07-27T11:11:17.519Z,36.57
2018-07-27T11:12:17.519Z,36.49
2018-07-27T11:14:10.462Z,36.65
2018-07-27T11:15:10.487Z,36.57
2018-07-27T11:17:03.447Z,36.51
2018-07-27T11:18:03.457Z,36.54
2018-07-27T11:19:56.435Z,36.58
2018-07-27T11:20:56.427Z,36.68
2018-07-27T11:22:49.376Z,36.64
2018-07-27T11:23:49.397Z,36.51
2018-07-27T11:25:42.632Z,36.39
2018-07-27T11:26:42.547Z,36.45
2018-07-27T11:28:35.487Z,36.52
2018-07-27T11:29:35.514Z,36.54
2018-07-27T11:31:28.479Z,36.54
2018-07-27T11:32:28.486Z,36.46
2018-07-27T11:34:21.430Z,36.39
2018-07-27T11:35:21.456Z,36.49
2018-07-27T11:37:14.444Z,36.58
2018-07-27T11:38:14.424Z,36.61
2018-07-27T11:40:07.379Z,36.90
2018-07-27T11:41:07.401Z,37.05
2018-07-27T11:43:00.372Z,36.95
2018-07-27T11:44:00.373Z,36.86
2018-07-27T11:45:53.342Z,36.82
2018-07-27T11:46:53.347Z,36.83
2018-07-27T11:48:46.297Z,36.67
2018-07-27T11:49:46.325Z,36.79
2018-07-27T11:51:39.296Z,36.82
2018-07-27T11:52:39.306Z,36.87
2018-07-27T11:54:32.252Z,36.80
2018-07-27T11:55:32.276Z,36.95
2018-07-27T11:57:25.241Z,36.94
2018-07-27T11:58:25.253Z,36.99
2018-07-27T12:00:18.204Z,36.92
2018-07-27T12:01:18.221Z,36.95
2018-07-27T12:03:11.189Z,36.86
2018-07-27T12:04:11.192Z,36.91
2018-07-27T12:06:04.176Z,36.95
2018-07-27T12:07:04.229Z,36.92
2018-07-27T12:08:57.116Z,37.02
2018-07-27T12:09:57.132Z,37.12
2018-07-27T12:11:50.105Z,37.19
2018-07-27T12:12:50.106Z,37.35
2018-07-27T12:14:43.188Z,37.50
2018-07-27T12:15:43.078Z,37.35
2018-07-27T12:17:36.048Z,37.35
2018-07-27T12:18:36.050Z,37.47
2018-07-27T12:20:29.085Z,37.41
2018-07-27T12:21:29.213Z,37.20
2018-07-27T12:23:21.987Z,37.01
2018-07-27T12:24:21.991Z,36.99
2018-07-27T12:26:14.947Z,36.99
2018-07-27T12:27:14.966Z,37.13
2018-07-27T12:29:07.931Z,37.20
2018-07-27T12:30:07.934Z,37.38
2018-07-27T12:32:00.900Z,37.50
2018-07-27T12:33:00.905Z,37.50
2018-07-27T12:34:53.851Z,37.61
2018-07-27T12:35:53.878Z,37.61
2018-07-27T12:37:46.857Z,37.51
2018-07-27T12:38:46.857Z,37.42
2018-07-27T12:40:39.802Z,37.20
2018-07-27T12:41:39.828Z,37.17
2018-07-27T12:43:32.799Z,37.14
2018-07-27T12:44:32.802Z,37.09
2018-07-27T12:46:25.749Z,37.14
2018-07-27T12:47:25.773Z,37.21
2018-07-27T12:49:18.736Z,37.23
2018-07-27T12:50:18.743Z,37.36
2018-07-27T12:52:11.719Z,37.26
2018-07-27T12:53:11.715Z,37.31
2018-07-27T12:55:04.676Z,37.31
2018-07-27T12:56:04.703Z,37.32
2018-07-27T12:57:57.666Z,37.20
2018-07-27T12:58:57.701Z,37.12
2018-07-27T13:00:50.618Z,37.04
2018-07-27T13:01:50.647Z,37.05
2018-07-27T13:03:43.607Z,37.10
2018-07-27T13:04:43.616Z,37.14
2018-07-27T13:06:36.563Z,37.32
2018-07-27T13:07:36.593Z,37.26
2018-07-27T13:09:29.558Z,37.19
2018-07-27T13:10:29.555Z,37.31
2018-07-27T13:12:22.521Z,36.98
2018-07-27T13:13:22.550Z,37.02
2018-07-27T13:15:15.475Z,37.14
2018-07-27T13:16:15.497Z,37.29
2018-07-27T13:18:08.468Z,37.38
2018-07-27T13:19:08.470Z,37.35
2018-07-27T13:21:01.412Z,37.46
2018-07-27T13:22:01.466Z,37.46
2018-07-27T13:23:54.406Z,37.43
2018-07-27T13:26:47.393Z,37.31
2018-07-27T13:27:47.416Z,37.32
2018-07-27T13:29:40.384Z,37.47
2018-07-27T13:30:40.389Z,37.56
2018-07-27T13:32:33.358Z,37.50
2018-07-27T13:33:33.360Z,37.10
2018-07-27T13:35:26.311Z,36.86
2018-07-27T13:36:26.332Z,36.98
2018-07-27T13:38:19.302Z,37.14
2018-07-27T13:39:19.304Z,37.19
2018-07-27T13:41:12.257Z,37.09
2018-07-27T13:42:12.271Z,37.02
2018-07-27T13:44:05.247Z,37.21
2018-07-27T13:45:05.254Z,37.12
2018-07-27T13:46:58.198Z,37.16
2018-07-27T13:47:58.231Z,37.19
2018-07-27T13:49:51.193Z,37.29
2018-07-27T13:50:51.200Z,37.20
2018-07-27T13:52:44.150Z,37.13
2018-07-27T13:53:44.172Z,37.12
2018-07-27T13:55:37.140Z,37.41
2018-07-27T13:56:37.143Z,37.31
2018-07-27T13:58:30.109Z,37.35
2018-07-27T13:59:30.112Z,37.46
2018-07-27T14:01:23.062Z,37.33
2018-07-27T14:02:23.084Z,37.26
2018-07-27T14:04:16.051Z,37.14
2018-07-27T14:05:16.099Z,37.14
2018-07-27T14:07:09.048Z,37.21
2018-07-27T14:08:09.070Z,37.04
2018-07-27T14:10:02.041Z,37.17
2018-07-27T14:11:02.040Z,37.19
2018-07-27T14:12:54.985Z,37.38
2018-07-27T14:13:55.016Z,37.38
2018-07-27T14:15:47.979Z,37.20
2018-07-27T14:16:47.986Z,37.13
2018-07-27T14:18:41.020Z,37.01
2018-07-27T14:19:40.961Z,37.01
2018-07-27T14:21:33.968Z,36.99
2018-07-27T14:22:33.954Z,36.87
2018-07-27T14:24:26.979Z,36.68
2018-07-27T14:25:26.987Z,36.61
2018-07-27T14:27:19.934Z,36.54
2018-07-27T14:28:19.959Z,36.57
2018-07-27T14:30:12.935Z,36.39
2018-07-27T14:31:12.924Z,36.31
2018-07-27T14:33:05.877Z,36.33
2018-07-27T14:34:05.900Z,36.36
2018-07-27T14:35:58.866Z,36.56
2018-07-27T14:36:58.900Z,36.64
2018-07-27T14:38:51.839Z,36.65
2018-07-27T14:39:51.845Z,36.60
2018-07-27T14:41:44.794Z,36.79
2018-07-27T14:42:44.809Z,36.80
2018-07-27T14:44:37.782Z,36.85
2018-07-27T14:45:37.785Z,36.86
2018-07-27T14:47:30.762Z,36.90
2018-07-27T14:48:30.766Z,36.94
2018-07-27T14:50:23.729Z,36.75
2018-07-27T14:51:23.732Z,36.72
2018-07-27T14:53:16.678Z,36.80
2018-07-27T14:54:16.702Z,36.83
2018-07-27T14:56:09.678Z,36.91
2018-07-27T14:57:09.674Z,36.90
2018-07-27T14:59:02.645Z,36.94
2018-07-27T15:00:02.650Z,36.97
2018-07-27T15:01:55.596Z,36.77
2018-07-27T15:02:55.620Z,36.73
2018-07-27T15:04:48.648Z,36.83
2018-07-27T15:05:48.590Z,36.75
2018-07-27T15:07:41.535Z,36.63
2018-07-27T15:08:41.619Z,36.65
2018-07-27T15:10:34.529Z,36.73
2018-07-27T15:11:34.539Z,36.73
2018-07-27T15:13:27.488Z,36.97
2018-07-27T15:14:27.509Z,36.99
2018-07-27T15:16:20.524Z,36.95
2018-07-27T15:17:20.487Z,36.95
2018-07-27T15:19:13.468Z,36.97
2018-07-27T15:20:13.449Z,36.92
2018-07-27T15:22:06.403Z,36.90
2018-07-27T15:23:06.425Z,36.80
2018-07-27T15:24:59.387Z,36.91
2018-07-27T15:25:59.402Z,36.83
2018-07-27T15:27:52.335Z,36.73
2018-07-27T15:28:52.412Z,36.85
2018-07-27T15:30:45.325Z,36.73
2018-07-27T15:31:45.333Z,36.68
2018-07-27T15:33:38.281Z,36.57
2018-07-27T15:34:38.299Z,36.46
2018-07-27T15:36:31.306Z,36.48
2018-07-27T15:37:31.276Z,36.61
2018-07-27T15:39:24.220Z,36.52
2018-07-27T15:40:24.243Z,36.52
2018-07-27T15:42:17.207Z,36.57
2018-07-27T15:43:17.210Z,36.60
2018-07-27T15:45:10.177Z,36.54
2018-07-27T15:46:10.186Z,36.49
2018-07-27T15:48:03.148Z,36.60
2018-07-27T15:49:03.153Z,36.57
2018-07-27T15:50:56.121Z,36.45
2018-07-27T15:51:56.121Z,36.42
2018-07-27T15:53:49.065Z,36.54
2018-07-27T15:54:49.095Z,36.48
2018-07-27T15:56:42.059Z,36.43
2018-07-27T15:57:42.065Z,36.41
2018-07-27T15:59:35.023Z,36.46
2018-07-27T16:00:35.042Z,36.48
2018-07-27T16:02:28.003Z,36.42
2018-07-27T16:03:28.010Z,36.38
2018-07-27T16:05:20.989Z,36.39
2018-07-27T16:06:20.988Z,36.33
2018-07-27T16:08:13.931Z,36.30
2018-07-27T16:09:13.953Z,36.24
2018-07-27T16:11:06.917Z,36.23
2018-07-27T16:12:06.929Z,36.31
2018-07-27T16:13:59.966Z,36.20
2018-07-27T16:14:59.897Z,36.26
2018-07-27T16:16:52.861Z,36.23
2018-07-27T16:17:52.865Z,36.15
2018-07-27T16:19:45.812Z,36.14
2018-07-27T16:20:45.840Z,36.15
2018-07-27T16:22:38.802Z,36.11
2018-07-27T16:23:38.806Z,35.95
2018-07-27T16:25:31.780Z,35.97
2018-07-27T16:26:31.774Z,35.99
2018-07-27T16:28:24.725Z,35.89
2018-07-27T16:29:24.747Z,35.91
2018-07-27T16:31:17.716Z,35.91
2018-07-27T16:32:17.758Z,35.86
2018-07-27T16:34:10.665Z,35.93
2018-07-27T16:35:10.683Z,35.92
2018-07-27T16:37:03.647Z,35.82
2018-07-27T16:38:03.656Z,35.97
2018-07-27T16:39:56.597Z,35.82
2018-07-27T16:40:56.623Z,35.82
2018-07-27T16:42:49.588Z,35.82
2018-07-27T16:43:49.595Z,35.85
2018-07-27T16:45:42.558Z,35.79
2018-07-27T16:46:42.560Z,35.72
2018-07-27T16:48:35.507Z,35.63
2018-07-27T16:49:35.530Z,35.63
2018-07-27T16:51:28.498Z,35.44
2018-07-27T16:52:28.499Z,35.37
2018-07-27T16:54:21.448Z,35.44
2018-07-27T16:55:21.469Z,35.44
2018-07-27T16:57:14.434Z,35.44
2018-07-27T16:58:14.438Z,35.44
2018-07-27T17:00:07.396Z,35.44
2018-07-27T17:01:07.425Z,35.33
2018-07-27T17:03:00.384Z,35.42
2018-07-27T17:04:00.413Z,35.30
2018-07-27T17:05:53.334Z,35.29
2018-07-27T17:06:53.351Z,35.29
2018-07-27T17:08:46.319Z,35.23
2018-07-27T17:09:46.324Z,35.23
2018-07-27T17:11:39.290Z,35.18
2018-07-27T17:12:39.295Z,35.15
2018-07-27T17:14:32.236Z,35.06
2018-07-27T17:15:32.257Z,35.06
2018-07-27T17:17:25.227Z,34.95
2018-07-27T17:18:25.225Z,34.98
2018-07-27T17:20:18.171Z,34.89
2018-07-27T17:21:18.193Z,34.86
2018-07-27T17:23:11.159Z,34.74
2018-07-27T17:24:11.157Z,34.80
2018-07-27T17:26:04.110Z,34.80
2018-07-27T17:27:04.129Z,34.79
2018-07-27T17:28:57.094Z,34.74
2018-07-27T17:29:57.093Z,34.72
2018-07-27T17:31:50.059Z,34.69
2018-07-27T17:32:50.131Z,34.58
2018-07-27T17:34:43.006Z,34.61
2018-07-27T17:35:43.027Z,34.64
2018-07-27T17:37:36.007Z,34.69
2018-07-27T17:38:36.015Z,34.73
2018-07-27T17:40:28.937Z,34.64
2018-07-27T17:41:28.959Z,34.64
2018-07-27T17:43:21.920Z,34.57
2018-07-27T17:44:21.923Z,34.56
2018-07-27T17:46:14.869Z,34.56
2018-07-27T17:47:14.890Z,34.44
2018-07-27T17:49:07.851Z,34.36
2018-07-27T17:50:07.874Z,34.35
2018-07-27T17:52:00.821Z,34.26
2018-07-27T17:53:00.822Z,34.20
2018-07-27T17:54:53.784Z,34.11
2018-07-27T17:55:53.790Z,34.08
2018-07-27T17:57:46.755Z,34.01
2018-07-27T17:58:46.757Z,34.04
2018-07-27T18:00:39.713Z,34.01
2018-07-27T18:01:39.792Z,34.01
2018-07-27T18:03:32.696Z,33.87
2018-07-27T18:04:32.696Z,33.89
2018-07-27T18:06:25.649Z,33.92
2018-07-27T18:07:25.781Z,33.92
2018-07-27T18:09:18.632Z,33.92
2018-07-27T18:10:18.630Z,33.94
2018-07-27T18:12:11.596Z,33.86
2018-07-27T18:13:11.627Z,33.79
2018-07-27T18:15:04.546Z,33.70
2018-07-27T18:16:04.576Z,33.71
2018-07-27T18:17:57.530Z,33.58
2018-07-27T18:18:57.535Z,33.63
2018-07-27T18:20:50.477Z,33.58
2018-07-27T18:21:50.502Z,33.52
2018-07-27T18:23:43.487Z,33.53
2018-07-27T18:24:43.463Z,33.51
2018-07-27T18:26:36.410Z,33.45
2018-07-27T18:27:36.429Z,33.36
2018-07-27T18:29:29.395Z,33.15
2018-07-27T18:30:29.476Z,33.22
2018-07-27T18:32:22.397Z,33.06
2018-07-27T18:33:22.365Z,33.03
2018-07-27T18:35:15.321Z,32.92
2018-07-27T18:36:15.326Z,32.88
2018-07-27T18:38:08.339Z,32.73
2018-07-27T18:39:08.343Z,32.62
2018-07-27T18:41:01.289Z,32.44
2018-07-27T18:42:01.362Z,32.49
2018-07-27T18:43:54.275Z,32.44
2018-07-27T18:44:54.269Z,32.33
2018-07-27T18:46:47.216Z,32.29
2018-07-27T18:47:47.237Z,32.24
2018-07-27T18:49:40.195Z,32.15
2018-07-27T18:50:40.202Z,32.20
2018-07-27T18:52:33.139Z,32.11
2018-07-27T18:53:33.162Z,32.11
2018-07-27T18:55:26.125Z,32.10
2018-07-27T18:56:26.145Z,32.03
2018-07-27T18:58:19.086Z,32.20
2018-07-27T18:59:19.101Z,32.06
2018-07-27T19:01:12.165Z,32.07
2018-07-27T19:02:12.050Z,32.02